Time;durP1;ratioP1;P1;durP2;ratioP2;P2;SDS_P1;SDS_P2;PMS_P1;PMS_P2;Temp;Humidity;BMP_temperature;BMP_pressure;BME280_temperature;BME280_humidity;BME280_pressure;Samples;Min_cycle;Max_cycle;Signal;HPM_P1;HPM_P2
2023/01/29 00:01:08;;;;;;;1999.90;999.90;;;-1.70;1.00;;;;;;4995220;28;20192;-67
2023/01/29 00:03:34;;;;;;;1999.90;999.90;;;-1.70;1.00;;;;;;5012717;28;20604;-67
2023/01/29 00:06:05;;;;;;;1999.90;999.90;;;-1.70;1.00;;;;;;4995174;28;20455;-67
2023/01/29 00:08:33;;;;;;;1999.90;999.90;;;-1.70;1.00;;;;;;5012638;28;20205;-67
2023/01/29 00:11:07;;;;;;;1999.90;999.90;;;-1.60;1.00;;;;;;5013015;28;20165;-67
2023/01/29 00:13:35;;;;;;;1999.90;999.90;;;-1.60;1.00;;;;;;5012751;28;20189;-67
2023/01/29 00:16:03;;;;;;;1999.90;999.90;;;-1.70;1.00;;;;;;5012522;28;20169;-67
2023/01/29 00:18:29;;;;;;;1999.90;999.90;;;-1.80;1.00;;;;;;5015701;28;20318;-67
2023/01/29 00:20:55;;;;;;;1999.90;999.90;;;-1.70;1.00;;;;;;5016070;28;20547;-67
2023/01/29 00:23:20;;;;;;;1999.90;999.90;;;-1.80;1.00;;;;;;5016910;28;20536;-67
2023/01/29 00:25:46;;;;;;;1999.90;999.90;;;-1.80;1.00;;;;;;5016756;28;20214;-67
2023/01/29 00:28:13;;;;;;;1999.90;999.90;;;-1.80;1.00;;;;;;5016172;28;20470;-66
2023/01/29 00:30:39;;;;;;;1999.90;999.90;;;-1.80;1.00;;;;;;5016183;28;20175;-67
2023/01/29 00:33:05;;;;;;;1999.90;999.90;;;-1.80;1.00;;;;;;5016612;28;20184;-67
2023/01/29 00:35:31;;;;;;;1999.90;999.90;;;-1.70;8.80;;;;;;5016166;28;20408;-67
2023/01/29 00:37:58;;;;;;;1999.90;999.90;;;-1.70;7.80;;;;;;5016630;28;20181;-67
2023/01/29 00:40:24;;;;;;;1999.90;999.90;;;-1.80;5.40;;;;;;5015712;28;20179;-67
2023/01/29 00:45:35;;;;;;;1999.90;999.90;;;-1.80;4.10;;;;;;5016551;28;20537;-67
2023/01/29 00:48:02;;;;;;;1999.90;999.90;;;-1.80;6.70;;;;;;5016238;28;20204;-67
2023/01/29 00:50:28;;;;;;;1999.90;999.90;;;-1.80;7.70;;;;;;5016293;28;20204;-67
2023/01/29 00:52:54;;;;;;;1999.90;999.90;;;-1.90;34.80;;;;;;5016520;28;20536;-67
2023/01/29 00:55:20;;;;;;;1999.90;999.90;;;-1.90;15.80;;;;;;5015832;28;20392;-67
2023/01/29 00:57:45;;;;;;;1999.90;999.90;;;-1.80;29.10;;;;;;4998055;28;20193;-67
2023/01/29 01:00:14;;;;;;;1999.90;999.90;;;-1.80;36.90;;;;;;5015659;28;20223;-67
2023/01/29 01:05:24;;;;;;;1999.90;999.90;;;-1.60;48.00;;;;;;5001380;28;20303;-67
2023/01/29 01:07:52;;;;;;;1999.90;999.90;;;-1.60;55.70;;;;;;5015706;28;20200;-67
2023/01/29 01:10:30;;;;;;;1999.90;999.90;;;-1.50;64.90;;;;;;5015496;28;20172;-66
2023/01/29 01:13:02;;;;;;;1999.90;999.90;;;-1.40;94.90;;;;;;5015776;28;20191;-67
2023/01/29 01:15:34;;;;;;;1999.90;999.90;;;-1.50;69.30;;;;;;5015443;28;20297;-67
2023/01/29 01:18:01;;;;;;;1999.90;999.90;;;-1.50;64.70;;;;;;5015613;28;20177;-67
2023/01/29 01:20:30;;;;;;;1999.90;999.90;;;-1.60;59.80;;;;;;5015001;28;20177;-67
2023/01/29 01:22:56;;;;;;;1999.90;999.90;;;-1.60;91.10;;;;;;5015397;28;20192;-67
2023/01/29 01:25:23;;;;;;;1999.90;999.90;;;-1.50;62.60;;;;;;5016248;28;20576;-67
2023/01/29 01:27:52;;;;;;;1999.90;999.90;;;-1.50;63.70;;;;;;5014719;28;20458;-67
2023/01/29 01:30:18;;;;;;;1999.90;999.90;;;-1.50;62.50;;;;;;5013976;28;20176;-67
2023/01/29 01:32:44;;;;;;;1999.90;999.90;;;-1.70;80.90;;;;;;5014783;28;20655;-67
2023/01/29 01:35:11;;;;;;;1999.90;999.90;;;-1.50;54.90;;;;;;5014794;28;20161;-67
2023/01/29 01:37:37;;;;;;;1999.90;999.90;;;-1.50;54.30;;;;;;5015021;28;20263;-68
2023/01/29 01:40:16;;;;;;;1999.90;999.90;;;-1.50;60.30;;;;;;5015146;28;20196;-67
2023/01/29 01:42:53;;;;;;;1999.90;999.90;;;-1.40;68.40;;;;;;5014799;28;20183;-67
2023/01/29 01:45:34;;;;;;;1999.90;999.90;;;-1.50;44.70;;;;;;5015190;28;20161;-67
2023/01/29 01:48:05;;;;;;;1999.90;999.90;;;-1.50;30.00;;;;;;5014719;28;20203;-67
2023/01/29 01:50:41;;;;;;;1999.90;999.90;;;-1.60;27.00;;;;;;5014687;28;20181;-67
2023/01/29 01:53:10;;;;;;;1999.90;999.90;;;-1.70;29.80;;;;;;5014370;28;20214;-68
2023/01/29 01:55:51;;;;;;;1999.90;999.90;;;-1.70;41.60;;;;;;5014858;28;20169;-67
2023/01/29 01:58:45;;;;;;;1999.90;999.90;;;-1.70;50.10;;;;;;5014783;28;20536;-68
2023/01/29 02:01:12;;;;;;;1999.90;999.90;;;-1.80;42.40;;;;;;5011593;28;20208;-67
2023/01/29 02:09:47;;;;;;;1999.90;999.90;;;-1.70;62.50;;;;;;5014328;28;20172;-67
2023/01/29 02:12:15;;;;;;;1999.90;999.90;;;-1.80;90.60;;;;;;4997474;28;20681;-67
2023/01/29 02:14:42;;;;;;;1999.90;999.90;;;-1.70;98.30;;;;;;5014324;28;20208;-68
2023/01/29 02:17:11;;;;;;;1999.90;999.90;;;-1.70;94.70;;;;;;5014145;28;20635;-68
2023/01/29 02:20:00;;;;;;;1999.90;999.90;;;-1.70;89.80;;;;;;5013843;28;20184;-67
2023/01/29 02:22:41;;;;;;;1999.90;999.90;;;-1.70;78.30;;;;;;5014112;28;20284;-68
2023/01/29 02:25:44;;;;;;;1999.90;999.90;;;-1.70;66.40;;;;;;5014211;28;20503;-68
2023/01/29 02:28:35;;;;;;;1999.90;999.90;;;-1.70;67.00;;;;;;5098703;22;20227;-67
2023/01/29 02:31:23;;;;;;;1999.90;999.90;;;-1.70;69.10;;;;;;5073491;28;20171;-67
2023/01/29 02:34:17;;;;;;;1999.90;999.90;;;-1.80;53.40;;;;;;5073407;28;20224;-67
2023/01/29 02:36:42;;;;;;;1999.90;999.90;;;-1.80;51.80;;;;;;5061144;28;20200;-67
2023/01/29 02:39:08;;;;;;;1999.90;999.90;;;-1.80;53.00;;;;;;5053225;28;20167;-67
2023/01/29 02:41:46;;;;;;;1999.90;999.90;;;-1.80;48.50;;;;;;5052845;28;20202;-67
2023/01/29 02:44:32;;;;;;;1999.90;999.90;;;-1.90;49.60;;;;;;5053261;28;20272;-67
2023/01/29 02:47:21;;;;;;;1999.90;999.90;;;-1.90;49.60;;;;;;5052982;28;20210;-67
2023/01/29 02:50:06;;;;;;;1999.90;999.90;;;-1.90;49.00;;;;;;5052895;28;20255;-67
2023/01/29 02:52:55;;;;;;;1999.90;999.90;;;-1.90;50.10;;;;;;5053107;28;20254;-67
2023/01/29 02:55:28;;;;;;;1999.90;999.90;;;-1.90;53.70;;;;;;5053089;28;20704;-67
2023/01/29 02:58:01;;;;;;;1999.90;999.90;;;-1.90;54.20;;;;;;5052822;28;20196;-67
2023/01/29 03:00:32;;;;;;;1999.90;999.90;;;-1.90;56.10;;;;;;5052857;28;20171;-67
2023/01/29 03:03:00;;;;;;;1999.90;999.90;;;-1.90;57.90;;;;;;5052822;28;20174;-67
2023/01/29 03:05:33;;;;;;;1999.90;999.90;;;-2.00;58.10;;;;;;5053031;28;20174;-67
2023/01/29 03:08:05;;;;;;;1999.90;999.90;;;-1.90;62.50;;;;;;5052495;28;20214;-67
2023/01/29 03:10:42;;;;;;;1999.90;999.90;;;-1.90;56.50;;;;;;5052681;28;20160;-67
2023/01/29 03:13:20;;;;;;;1999.90;999.90;;;-1.90;49.60;;;;;;5052676;28;20211;-67
2023/01/29 03:15:53;;;;;;;1999.90;999.90;;;-2.00;37.40;;;;;;5052564;28;20787;-67
2023/01/29 03:18:26;;;;;;;1999.90;999.90;;;-2.10;29.80;;;;;;5052689;28;20337;-67
2023/01/29 03:20:57;;;;;;;1999.90;999.90;;;-2.20;20.80;;;;;;5052542;28;20179;-67
2023/01/29 03:32:04;;;;;;;1999.90;999.90;;;-2.30;29.90;;;;;;5052384;28;20174;-67
2023/01/29 03:34:37;;;;;;;1999.90;999.90;;;-2.40;33.60;;;;;;5052272;28;20171;-67
2023/01/29 03:37:35;;;;;;;1999.90;999.90;;;-2.30;39.00;;;;;;5052375;28;20203;-67
2023/01/29 03:40:05;;;;;;;1999.90;999.90;;;-2.30;40.70;;;;;;5032953;28;20207;-68
2023/01/29 03:42:48;;;;;;;1999.90;999.90;;;-2.30;35.90;;;;;;5052150;28;20168;-67
2023/01/29 03:45:16;;;;;;;1999.90;999.90;;;-2.40;30.70;;;;;;5052360;28;20176;-67
2023/01/29 03:47:47;;;;;;;1999.90;999.90;;;-2.40;36.80;;;;;;5051847;28;20195;-67
2023/01/29 03:50:25;;;;;;;1999.90;999.90;;;-2.30;48.20;;;;;;5052090;28;20230;-67
2023/01/29 03:52:59;;;;;;;1999.90;999.90;;;-2.20;58.30;;;;;;5051384;28;20171;-67
2023/01/29 03:55:28;;;;;;;1999.90;999.90;;;-2.20;61.60;;;;;;5051990;28;20171;-67
2023/01/29 03:58:16;;;;;;;1999.90;999.90;;;-2.30;66.40;;;;;;5052071;28;20214;-67
2023/01/29 04:00:51;;;;;;;1999.90;999.90;;;-2.30;74.20;;;;;;5051861;28;20160;-67
2023/01/29 04:03:31;;;;;;;1999.90;999.90;;;-2.30;80.80;;;;;;5051940;28;20182;-67
2023/01/29 04:06:08;;;;;;;1999.90;999.90;;;-2.30;84.30;;;;;;5051745;28;20171;-67
2023/01/29 04:08:49;;;;;;;1999.90;999.90;;;-2.30;78.90;;;;;;5051644;28;20687;-67
2023/01/29 04:11:19;;;;;;;1999.90;999.90;;;-2.20;78.70;;;;;;5051712;28;20637;-68
2023/01/29 04:13:45;;;;;;;1999.90;999.90;;;-2.20;56.10;;;;;;5051853;28;20175;-67
2023/01/29 04:16:22;;;;;;;1999.90;999.90;;;-2.20;54.40;;;;;;5051648;28;20657;-67
2023/01/29 04:18:49;;;;;;;1999.90;999.90;;;-2.30;58.50;;;;;;5051825;28;20195;-67
2023/01/29 04:21:15;;;;;;;1999.90;999.90;;;-2.30;72.80;;;;;;5051621;28;20228;-67
2023/01/29 04:23:40;;;;;;;1999.90;999.90;;;-2.30;90.50;;;;;;5051737;28;20176;-68
2023/01/29 04:26:15;;;;;;;1999.90;999.90;;;-2.20;96.80;;;;;;5051784;28;20172;-68
2023/01/29 04:28:55;;;;;;;1999.90;999.90;;;-2.20;99.50;;;;;;5051412;28;20211;-67
2023/01/29 04:31:27;;;;;;;1999.90;999.90;;;-2.20;99.90;;;;;;5051667;28;20686;-67
2023/01/29 04:34:14;;;;;;;1999.90;999.90;;;-2.20;99.90;;;;;;5051636;28;20199;-67
2023/01/29 04:37:06;;;;;;;1999.90;999.90;;;-2.30;99.90;;;;;;5051446;28;20541;-67
2023/01/29 04:40:13;;;;;;;1999.90;999.90;;;-2.10;99.90;;;;;;5051659;28;20174;-68
2023/01/29 04:42:50;;;;;;;1999.90;999.90;;;-2.00;99.90;;;;;;5050909;28;20172;-67
2023/01/29 04:45:19;;;;;;;1999.90;999.90;;;-2.00;99.90;;;;;;5051529;28;20178;-68
2023/01/29 04:48:16;;;;;;;1999.90;999.90;;;-2.00;99.90;;;;;;5051281;28;20207;-67
2023/01/29 04:51:16;;;;;;;1999.90;999.90;;;-2.00;99.90;;;;;;5051361;28;20226;-67
2023/01/29 04:53:48;;;;;;;1999.90;999.90;;;-2.00;99.90;;;;;;5051514;28;20206;-67
2023/01/29 04:56:28;;;;;;;1999.90;999.90;;;-2.00;99.90;;;;;;5051327;28;20528;-67
2023/01/29 04:59:12;;;;;;;1999.90;999.90;;;-2.00;99.90;;;;;;5051714;28;20202;-67
2023/01/29 05:01:38;;;;;;;1999.90;999.90;;;-2.00;99.90;;;;;;5051324;28;20206;-67
2023/01/29 05:04:08;;;;;;;1999.90;999.90;;;-2.00;99.90;;;;;;5053813;28;20633;-67
2023/01/29 05:06:36;;;;;;;1999.90;999.90;;;-2.00;99.90;;;;;;5054923;28;20221;-67
2023/01/29 05:09:02;;;;;;;1999.90;999.90;;;-2.10;99.90;;;;;;5055294;28;20322;-67
2023/01/29 05:11:31;;;;;;;1999.90;999.90;;;-2.10;99.90;;;;;;5054924;28;20613;-67
2023/01/29 05:13:58;;;;;;;1999.90;999.90;;;-2.10;99.90;;;;;;5055015;28;20183;-67
2023/01/29 05:16:28;;;;;;;1999.90;999.90;;;-1.60;99.90;;;;;;5054668;28;20248;-67
2023/01/29 05:18:54;;;;;;;1999.90;999.90;;;-2.10;99.90;;;;;;5055115;28;20178;-67
2023/01/29 05:21:22;;;;;;;1999.90;999.90;;;-2.00;99.90;;;;;;5054694;28;20541;-67
2023/01/29 05:24:09;;;;;;;1999.90;999.90;;;-2.00;99.90;;;;;;5054901;28;20176;-67
2023/01/29 05:29:20;;;;;;;1999.90;999.90;;;-2.00;98.90;;;;;;5054535;28;20249;-67
2023/01/29 05:31:45;;;;;;;1999.90;999.90;;;-2.00;99.40;;;;;;5054585;28;20191;-67
2023/01/29 05:34:11;;;;;;;1999.90;999.90;;;-2.00;99.90;;;;;;5054601;28;20207;-67
2023/01/29 05:36:36;;;;;;;1999.90;999.90;;;-2.00;99.90;;;;;;5054352;28;20172;-68
2023/01/29 05:39:02;;;;;;;1999.90;999.90;;;-2.00;97.90;;;;;;5054515;28;20172;-67
2023/01/29 05:41:28;;;;;;;1999.90;999.90;;;-2.10;99.90;;;;;;5054193;28;20691;-67
2023/01/29 05:43:53;;;;;;;1999.90;999.90;;;-2.10;99.90;;;;;;5054468;28;20202;-67
2023/01/29 05:46:19;;;;;;;1999.90;999.90;;;-2.00;99.90;;;;;;5054244;28;20163;-67
2023/01/29 05:48:44;;;;;;;1999.90;999.90;;;-2.00;99.10;;;;;;5054274;28;20207;-67
2023/01/29 05:51:10;;;;;;;1999.90;999.90;;;-2.00;95.80;;;;;;5054129;28;20203;-67
2023/01/29 05:53:35;;;;;;;1999.90;999.90;;;-2.00;90.70;;;;;;5054251;28;20574;-67
2023/01/29 05:56:03;;;;;;;1999.90;999.90;;;-2.00;80.50;;;;;;5054132;28;20182;-67
2023/01/29 05:58:32;;;;;;;1999.90;999.90;;;-2.00;77.50;;;;;;5054325;28;20816;-67
2023/01/29 06:01:26;;;;;;;1999.90;999.90;;;-2.10;76.70;;;;;;5053928;28;20184;-67
2023/01/29 06:03:52;;;;;;;1999.90;999.90;;;-2.10;87.90;;;;;;5053582;28;20184;-67
2023/01/29 06:06:18;;;;;;;1999.90;999.90;;;-2.10;91.90;;;;;;5054088;28;20778;-67
2023/01/29 06:08:43;;;;;;;1999.90;999.90;;;-2.10;87.90;;;;;;5053872;28;20572;-67
2023/01/29 06:11:11;;;;;;;1999.90;999.90;;;-2.20;84.80;;;;;;5054070;28;20174;-67
2023/01/29 06:13:38;;;;;;;1999.90;999.90;;;-2.20;91.20;;;;;;5053798;28;20171;-67
2023/01/29 06:16:05;;;;;;;1999.90;999.90;;;-2.30;93.70;;;;;;5052952;28;20163;-67
2023/01/29 06:18:31;;;;;;;1999.90;999.90;;;-2.30;94.80;;;;;;5054004;28;20200;-66
2023/01/29 06:21:01;;;;;;;1999.90;999.90;;;-2.30;94.20;;;;;;5053616;28;20180;-67
2023/01/29 06:23:27;;;;;;;1999.90;999.90;;;-2.30;95.80;;;;;;5053676;28;20171;-67
2023/01/29 06:25:53;;;;;;;1999.90;999.90;;;-2.30;96.90;;;;;;5053649;28;20196;-67
2023/01/29 06:28:18;;;;;;;1999.90;999.90;;;-2.30;95.60;;;;;;5053948;28;20465;-67
2023/01/29 06:30:44;;;;;;;1999.90;999.90;;;-2.30;94.90;;;;;;5053819;28;20175;-66
2023/01/29 06:33:09;;;;;;;1999.90;999.90;;;-2.30;94.80;;;;;;5054006;28;20517;-67
2023/01/29 06:35:35;;;;;;;1999.90;999.90;;;-2.30;95.70;;;;;;5054177;28;20263;-67
2023/01/29 06:38:00;;;;;;;1999.90;999.90;;;-2.30;88.30;;;;;;5053843;28;20187;-67
2023/01/29 06:40:26;;;;;;;1999.90;999.90;;;-2.30;80.00;;;;;;5053903;28;20176;-67
2023/01/29 06:42:52;;;;;;;1999.90;999.90;;;-2.30;72.40;;;;;;5054007;28;20213;-67
2023/01/29 06:45:17;;;;;;;1999.90;999.90;;;-2.30;65.20;;;;;;5053944;28;20207;-67
2023/01/29 06:47:43;;;;;;;1999.90;999.90;;;-2.30;60.40;;;;;;5053761;28;20198;-67
2023/01/29 06:50:09;;;;;;;1999.90;999.90;;;-2.30;67.50;;;;;;5054047;28;20168;-67
2023/01/29 06:52:34;;;;;;;1999.90;999.90;;;-2.20;71.20;;;;;;5036403;28;20168;-66
2023/01/29 06:55:00;;;;;;;1999.90;999.90;;;-2.20;76.80;;;;;;5054319;28;20183;-67
2023/01/29 06:57:28;;;;;;;1999.90;999.90;;;-2.20;86.50;;;;;;5053884;28;20196;-67
2023/01/29 06:59:54;;;;;;;1999.90;999.90;;;-2.10;95.30;;;;;;5053831;28;20589;-67
2023/01/29 07:02:19;;;;;;;1999.90;999.90;;;-2.00;95.90;;;;;;5054175;28;20286;-67
2023/01/29 07:04:45;;;;;;;1999.90;999.90;;;-1.90;98.10;;;;;;5054323;28;20607;-67
2023/01/29 07:07:12;;;;;;;1999.90;999.90;;;-1.90;99.90;;;;;;5053500;28;20553;-67
2023/01/29 07:09:41;;;;;;;1999.90;999.90;;;-1.80;99.90;;;;;;5053596;28;20608;-67
2023/01/29 07:12:08;;;;;;;1999.90;999.90;;;-1.80;99.90;;;;;;5053797;28;20582;-67
2023/01/29 07:14:33;;;;;;;1999.90;999.90;;;-1.70;99.90;;;;;;5053779;28;20548;-67
2023/01/29 07:16:59;;;;;;;1999.90;999.90;;;-1.60;99.90;;;;;;5053409;28;20279;-67
2023/01/29 07:19:25;;;;;;;1999.90;999.90;;;-1.60;99.90;;;;;;5053513;28;20175;-67
2023/01/29 07:21:50;;;;;;;1999.90;999.90;;;-1.50;99.90;;;;;;5053522;28;20179;-67
2023/01/29 07:24:16;;;;;;;1999.90;999.90;;;-1.50;99.90;;;;;;5053574;28;20641;-67
2023/01/29 07:26:41;;;;;;;1999.90;999.90;;;-1.40;99.90;;;;;;5053226;28;20202;-67
2023/01/29 07:29:07;;;;;;;1999.90;999.90;;;-1.40;98.70;;;;;;5053822;28;20172;-67
2023/01/29 07:31:33;;;;;;;1999.90;999.90;;;-1.40;96.00;;;;;;5053563;28;20164;-67
2023/01/29 07:33:58;;;;;;;1999.90;999.90;;;-1.30;91.10;;;;;;5053570;28;20172;-66
2023/01/29 07:36:24;;;;;;;1999.90;999.90;;;-1.30;95.30;;;;;;5053499;28;20179;-67
2023/01/29 07:38:50;;;;;;;1999.90;999.90;;;-1.30;72.00;;;;;;5053416;28;20176;-67
2023/01/29 07:41:16;;;;;;;1999.90;999.90;;;-1.20;63.60;;;;;;5053235;28;20757;-67
2023/01/29 07:43:41;;;;;;;1999.90;999.90;;;-1.20;51.90;;;;;;5053077;28;20233;-67
2023/01/29 07:46:07;;;;;;;1999.90;999.90;;;-1.10;46.20;;;;;;5053648;28;20226;-67
2023/01/29 07:48:33;;;;;;;1999.90;999.90;;;-1.10;36.40;;;;;;5053230;28;20195;-67
2023/01/29 07:50:58;;;;;;;1999.90;999.90;;;-1.00;34.40;;;;;;5053035;28;20618;-67
2023/01/29 07:53:24;;;;;;;1999.90;999.90;;;-1.00;30.90;;;;;;5053341;28;20168;-67
2023/01/29 07:55:50;;;;;;;1999.90;999.90;;;-1.00;30.10;;;;;;5053123;28;20182;-66
2023/01/29 07:58:15;;;;;;;1999.90;999.90;;;-0.90;27.80;;;;;;5053210;28;20445;-66
2023/01/29 08:00:42;;;;;;;1999.90;999.90;;;-0.90;29.70;;;;;;5053444;28;20702;-67
2023/01/29 08:03:14;;;;;;;1999.90;999.90;;;-0.90;30.40;;;;;;5053268;28;20184;-66
2023/01/29 08:05:40;;;;;;;1999.90;999.90;;;-0.80;29.70;;;;;;5053176;28;20183;-67
2023/01/29 08:08:06;;;;;;;1999.90;999.90;;;-0.80;30.70;;;;;;5053071;28;20314;-66
2023/01/29 08:10:32;;;;;;;1999.90;999.90;;;-0.70;13.40;;;;;;5053379;28;20411;-67
2023/01/29 08:13:00;;;;;;;1999.90;999.90;;;-0.70;3.40;;;;;;5053493;28;20172;-67
2023/01/29 08:15:26;;;;;;;1999.90;999.90;;;-0.70;1.30;;;;;;5053135;28;20167;-67
2023/01/29 08:17:53;;;;;;;1999.90;999.90;;;-0.70;1.00;;;;;;5053527;28;20194;-66
2023/01/29 08:20:20;;;;;;;1999.90;999.90;;;-0.70;1.00;;;;;;5053024;28;20180;-67
2023/01/29 08:22:46;;;;;;;1999.90;999.90;;;-0.60;1.00;;;;;;5053050;28;20176;-67
2023/01/29 08:25:12;;;;;;;1999.90;999.90;;;-0.70;1.00;;;;;;5052977;28;20254;-66
2023/01/29 08:27:38;;;;;;;1999.90;999.90;;;-0.70;1.00;;;;;;5052833;28;20230;-67
2023/01/29 08:30:05;;;;;;;1999.90;999.90;;;-0.70;1.00;;;;;;5052090;28;20613;-66
2023/01/29 08:32:30;;;;;;;1999.90;999.90;;;-0.70;1.00;;;;;;5051785;28;20214;-66
2023/01/29 08:34:56;;;;;;;1999.90;999.90;;;-0.70;1.00;;;;;;5052010;28;20172;-66
2023/01/29 08:37:22;;;;;;;1999.90;999.90;;;-0.70;1.00;;;;;;5051879;28;20757;-66
2023/01/29 08:39:47;;;;;;;1999.90;999.90;;;-0.60;1.00;;;;;;5055951;28;20171;-66
2023/01/29 08:42:13;;;;;;;1999.90;999.90;;;-0.60;1.00;;;;;;5056275;28;20191;-66
2023/01/29 08:44:38;;;;;;;1999.90;999.90;;;-0.50;2.60;;;;;;5056267;28;20168;-66
2023/01/29 08:47:04;;;;;;;1999.90;999.90;;;-0.50;1.00;;;;;;5055692;28;20191;-66
2023/01/29 08:49:29;;;;;;;1999.90;999.90;;;-0.40;1.00;;;;;;5055692;28;20693;-67
2023/01/29 08:51:55;;;;;;;1999.90;999.90;;;-0.40;1.00;;;;;;5055836;28;20174;-67
2023/01/29 08:54:22;;;;;;;1999.90;999.90;;;-0.40;1.00;;;;;;5055735;28;20199;-66
2023/01/29 08:56:48;;;;;;;1999.90;999.90;;;-0.30;1.00;;;;;;5055919;28;20678;-66
2023/01/29 08:59:13;;;;;;;1999.90;999.90;;;-0.30;1.00;;;;;;5055667;28;20163;-66
2023/01/29 09:01:39;;;;;;;1999.90;999.90;;;-0.30;1.00;;;;;;5055534;28;20190;-66
2023/01/29 09:04:04;;;;;;;1999.90;999.90;;;-0.30;1.00;;;;;;5055778;28;20168;-66
2023/01/29 09:06:30;;;;;;;1999.90;999.90;;;-0.10;1.30;;;;;;5055732;28;20175;-66
2023/01/29 09:08:55;;;;;;;1999.90;999.90;;;-0.10;1.00;;;;;;5055773;28;20257;-66
2023/01/29 09:11:21;;;;;;;1999.90;999.90;;;-0.10;1.00;;;;;;5055852;28;20178;-66
2023/01/29 09:13:47;;;;;;;1999.90;999.90;;;-0.20;1.00;;;;;;5055706;28;20167;-66
2023/01/29 09:16:12;;;;;;;1999.90;999.90;;;-0.20;1.00;;;;;;5055505;28;20229;-66
2023/01/29 09:18:38;;;;;;;1999.90;999.90;;;-0.20;1.00;;;;;;5055297;28;20195;-66
2023/01/29 09:21:04;;;;;;;1999.90;999.90;;;-0.10;1.00;;;;;;5055651;28;20176;-66
2023/01/29 09:23:30;;;;;;;1999.90;999.90;;;-0.10;1.00;;;;;;5055432;28;20657;-66
2023/01/29 09:25:56;;;;;;;1999.90;999.90;;;0.00;1.00;;;;;;5055533;28;20414;-66
2023/01/29 09:28:22;;;;;;;1999.90;999.90;;;0.20;1.00;;;;;;5055632;28;20207;-67
2023/01/29 09:30:48;;;;;;;1999.90;999.90;;;0.20;1.00;;;;;;5055460;28;20294;-67
2023/01/29 09:33:13;;;;;;;1999.90;999.90;;;0.30;1.00;;;;;;5055758;28;20182;-66
2023/01/29 09:35:41;;;;;;;1999.90;999.90;;;0.30;1.00;;;;;;5056124;28;20171;-66
2023/01/29 09:38:07;;;;;;;1999.90;999.90;;;0.30;1.00;;;;;;5055732;28;20278;-66
2023/01/29 09:40:36;;;;;;;1999.90;999.90;;;0.30;1.00;;;;;;5055729;28;20207;-66
2023/01/29 09:43:21;;;;;;;1999.90;999.90;;;0.30;1.00;;;;;;5055794;28;20172;-66
2023/01/29 09:46:32;;;;;;;1999.90;999.90;;;0.20;1.00;;;;;;5056320;28;20179;-66
2023/01/29 09:49:05;;;;;;;1999.90;999.90;;;0.20;1.00;;;;;;5009383;28;20215;-66
2023/01/29 09:51:38;;;;;;;1999.90;999.90;;;0.20;1.00;;;;;;5055146;28;20217;-66
2023/01/29 09:54:53;;;;;;;1999.90;999.90;;;0.20;1.00;;;;;;5056034;28;20699;-67
2023/01/29 09:57:24;;;;;;;1999.90;999.90;;;0.40;1.00;;;;;;5048222;28;20204;-67
2023/01/29 09:59:50;;;;;;;1999.90;999.90;;;0.50;1.00;;;;;;5056116;28;20168;-67
2023/01/29 10:02:40;;;;;;;1999.90;999.90;;;0.60;1.00;;;;;;5056272;28;20171;-66
2023/01/29 10:05:15;;;;;;;1999.90;999.90;;;0.60;1.00;;;;;;5055635;28;20808;-67
2023/01/29 10:07:40;;;;;;;1999.90;999.90;;;0.60;1.00;;;;;;5055434;28;20197;-67
2023/01/29 10:10:36;;;;;;;1999.90;999.90;;;0.70;1.00;;;;;;5055628;28;20603;-67
2023/01/29 10:13:27;;;;;;;1999.90;999.90;;;0.80;1.00;;;;;;5055570;28;20156;-67
2023/01/29 10:16:10;;;;;;;1999.90;999.90;;;0.90;1.00;;;;;;5055072;28;20541;-67
2023/01/29 10:19:19;;;;;;;1999.90;999.90;;;0.90;1.00;;;;;;5054924;28;20188;-67
2023/01/29 10:21:54;;;;;;;1999.90;999.90;;;0.90;1.00;;;;;;4976165;28;20175;-67
2023/01/29 10:24:27;;;;;;;1999.90;999.90;;;1.00;1.00;;;;;;5054265;28;20170;-67
2023/01/29 10:26:54;;;;;;;1999.90;999.90;;;1.20;1.00;;;;;;5053772;28;20204;-67
2023/01/29 10:29:23;;;;;;;1999.90;999.90;;;1.30;1.00;;;;;;5053910;28;20224;-67
2023/01/29 10:31:56;;;;;;;1999.90;999.90;;;1.40;1.00;;;;;;5054020;28;20160;-67
2023/01/29 10:34:40;;;;;;;1999.90;999.90;;;1.60;1.00;;;;;;5054072;28;20257;-67
2023/01/29 10:37:17;;;;;;;1999.90;999.90;;;1.70;1.00;;;;;;5053869;28;20198;-67
2023/01/29 10:39:43;;;;;;;1999.90;999.90;;;1.80;1.00;;;;;;5054195;28;20169;-67
2023/01/29 10:42:35;;;;;;;1999.90;999.90;;;1.90;1.00;;;;;;5054326;28;20172;-67
2023/01/29 10:45:11;;;;;;;1999.90;999.90;;;2.00;99.90;;;;;;5054221;28;20529;-67
2023/01/29 10:48:03;;;;;;;1999.90;999.90;;;2.10;99.90;;;;;;5053838;28;20733;-67
2023/01/29 10:50:37;;;;;;;1999.90;999.90;;;2.20;99.90;;;;;;5054091;28;20194;-67
2023/01/29 10:53:15;;;;;;;1999.90;999.90;;;2.30;99.90;;;;;;5054548;28;20574;-67
2023/01/29 10:56:20;;;;;;;1999.90;999.90;;;2.30;99.90;;;;;;5054060;28;20262;-67
2023/01/29 10:58:56;;;;;;;1999.90;999.90;;;2.30;99.90;;;;;;5054144;28;20199;-67
2023/01/29 11:01:21;;;;;;;1999.90;999.90;;;2.40;99.90;;;;;;5053393;28;20594;-67
2023/01/29 11:03:57;;;;;;;1999.90;999.90;;;2.50;99.90;;;;;;5053393;28;20176;-67
2023/01/29 11:06:28;;;;;;;1999.90;999.90;;;2.60;99.90;;;;;;5053346;28;20159;-67
2023/01/29 11:09:21;;;;;;;1999.90;999.90;;;2.70;99.90;;;;;;5053455;28;20198;-67
2023/01/29 11:11:51;;;;;;;1999.90;999.90;;;2.80;15.80;;;;;;5053517;28;20166;-67
2023/01/29 11:14:25;;;;;;;1999.90;999.90;;;2.90;14.30;;;;;;5053347;28;20168;-67
2023/01/29 11:16:51;;;;;;;1999.90;999.90;;;2.90;1.00;;;;;;5053094;28;20625;-67
2023/01/29 11:19:17;;;;;;;1999.90;999.90;;;3.00;1.00;;;;;;5052871;28;20200;-67
2023/01/29 11:22:13;;;;;;;1999.90;999.90;;;2.90;1.00;;;;;;5053126;28;20164;-67
2023/01/29 11:24:39;;;;;;;1999.90;999.90;;;3.00;1.00;;;;;;5032885;28;20184;-67
2023/01/29 11:27:16;;;;;;;1999.90;999.90;;;3.00;1.00;;;;;;5052703;28;20310;-67
2023/01/29 11:29:46;;;;;;;1999.90;999.90;;;3.00;1.00;;;;;;5052807;28;20547;-67
2023/01/29 11:32:35;;;;;;;1999.90;999.90;;;3.00;1.00;;;;;;5052946;28;20860;-67
2023/01/29 11:35:14;;;;;;;1999.90;999.90;;;3.10;1.00;;;;;;5039268;28;20667;-67
2023/01/29 11:37:43;;;;;;;1999.90;999.90;;;3.30;1.00;;;;;;5052595;28;20598;-67
2023/01/29 11:40:17;;;;;;;1999.90;999.90;;;3.30;1.00;;;;;;5052477;28;20652;-67
2023/01/29 11:42:44;;;;;;;1999.90;999.90;;;3.30;99.90;;;;;;5052443;28;20229;-67
2023/01/29 11:45:19;;;;;;;1999.90;999.90;;;3.30;99.90;;;;;;5052548;28;20655;-67
2023/01/29 11:47:51;;;;;;;1999.90;999.90;;;3.40;99.90;;;;;;5052202;28;20207;-67
2023/01/29 11:50:29;;;;;;;1999.90;999.90;;;3.50;99.90;;;;;;5051994;28;20209;-67
2023/01/29 11:52:57;;;;;;;1999.90;999.90;;;3.50;1.00;;;;;;5052258;28;20190;-67
2023/01/29 11:55:25;;;;;;;1999.90;999.90;;;3.60;99.90;;;;;;5052294;28;20505;-67
2023/01/29 11:58:15;;;;;;;1999.90;999.90;;;3.60;16.40;;;;;;5052066;28;20570;-67
2023/01/29 12:00:47;;;;;;;1999.90;999.90;;;3.50;1.00;;;;;;5052246;28;20727;-67
2023/01/29 12:03:33;;;;;;;1999.90;999.90;;;3.50;99.90;;;;;;5052378;28;20176;-67
2023/01/29 12:06:04;;;;;;;1999.90;999.90;;;3.50;99.90;;;;;;5051857;28;20171;-67
2023/01/29 12:08:36;;;;;;;1999.90;999.90;;;3.40;99.90;;;;;;5051960;28;20247;-67
2023/01/29 12:11:32;;;;;;;1999.90;999.90;;;3.40;1.00;;;;;;5051690;28;20163;-67
2023/01/29 12:14:01;;;;;;;1999.90;999.90;;;3.50;99.90;;;;;;5051426;28;20550;-67
2023/01/29 12:16:39;;;;;;;1999.90;999.90;;;3.70;99.90;;;;;;5051993;28;20655;-67
2023/01/29 12:19:31;;;;;;;1999.90;999.90;;;3.60;99.90;;;;;;5051923;28;20574;-67
2023/01/29 12:22:11;;;;;;;1999.90;999.90;;;3.70;99.90;;;;;;5046884;28;20237;-67
2023/01/29 12:24:55;;;;;;;1999.90;999.90;;;3.70;99.90;;;;;;5051884;28;20281;-67
2023/01/29 12:27:26;;;;;;;1999.90;999.90;;;3.60;99.90;;;;;;5051537;28;20203;-67
2023/01/29 12:30:00;;;;;;;1999.90;999.90;;;3.70;1.00;;;;;;5051536;28;20578;-67
2023/01/29 12:32:40;;;;;;;1999.90;999.90;;;3.80;1.00;;;;;;5051795;28;20176;-67
2023/01/29 12:35:06;;;;;;;1999.90;999.90;;;4.10;1.00;;;;;;5051735;28;20182;-67
2023/01/29 12:38:07;;;;;;;1999.90;999.90;;;4.30;99.90;;;;;;5051611;28;20191;-67
2023/01/29 12:40:41;;;;;;;1999.90;999.90;;;4.40;99.90;;;;;;5051645;28;20274;-67
2023/01/29 12:43:21;;;;;;;1999.90;999.90;;;4.40;99.90;;;;;;5051772;28;20961;-67
2023/01/29 12:45:51;;;;;;;1999.90;999.90;;;4.40;99.90;;;;;;5051764;28;20397;-67
2023/01/29 12:48:28;;;;;;;1999.90;999.90;;;4.30;99.90;;;;;;5051729;28;20515;-67
2023/01/29 12:50:57;;;;;;;1999.90;999.90;;;4.30;99.90;;;;;;5051455;28;20903;-67